sensor_id;sensor_type;location;lat;lon;timestamp;P1;durP1;ratioP1;P2;durP2;ratioP2
12848;SDS011;6493;50.928;7.172;2023-07-31T00:04:26;0.90;;;0.70;;
12848;SDS011;6493;50.928;7.172;2023-07-31T00:09:30;1.47;;;0.77;;
12848;SDS011;6493;50.928;7.172;2023-07-31T00:14:35;1.83;;;1.00;;
12848;SDS011;6493;50.928;7.172;2023-07-31T00:19:38;0.73;;;0.70;;
12848;SDS011;6493;50.928;7.172;2023-07-31T00:24:42;1.07;;;0.80;;
12848;SDS011;6493;50.928;7.172;2023-07-31T00:29:47;1.20;;;0.70;;
12848;SDS011;6493;50.928;7.172;2023-07-31T00:34:51;1.30;;;0.77;;
12848;SDS011;6493;50.928;7.172;2023-07-31T00:39:55;1.23;;;0.60;;
12848;SDS011;6493;50.928;7.172;2023-07-31T00:45:00;0.90;;;0.77;;
12848;SDS011;6493;50.928;7.172;2023-07-31T00:50:05;1.37;;;0.90;;
12848;SDS011;6493;50.928;7.172;2023-07-31T00:55:10;0.90;;;0.90;;
12848;SDS011;6493;50.928;7.172;2023-07-31T01:00:15;1.20;;;0.90;;
12848;SDS011;6493;50.928;7.172;2023-07-31T01:05:20;1.40;;;1.10;;
12848;SDS011;6493;50.928;7.172;2023-07-31T01:10:29;1.17;;;1.00;;
12848;SDS011;6493;50.928;7.172;2023-07-31T01:15:40;1.50;;;1.07;;
12848;SDS011;6493;50.928;7.172;2023-07-31T01:20:43;1.20;;;0.97;;
12848;SDS011;6493;50.928;7.172;2023-07-31T01:25:57;0.80;;;0.80;;
12848;SDS011;6493;50.928;7.172;2023-07-31T01:31:07;1.07;;;0.97;;
12848;SDS011;6493;50.928;7.172;2023-07-31T01:36:13;1.13;;;0.97;;
12848;SDS011;6493;50.928;7.172;2023-07-31T01:41:18;1.10;;;1.00;;
12848;SDS011;6493;50.928;7.172;2023-07-31T01:46:22;1.10;;;0.83;;
12848;SDS011;6493;50.928;7.172;2023-07-31T01:51:25;1.07;;;0.60;;
12848;SDS011;6493;50.928;7.172;2023-07-31T01:56:30;1.47;;;1.13;;
12848;SDS011;6493;50.928;7.172;2023-07-31T02:01:34;1.10;;;1.00;;
12848;SDS011;6493;50.928;7.172;2023-07-31T02:06:38;0.80;;;0.80;;
12848;SDS011;6493;50.928;7.172;2023-07-31T02:11:44;0.70;;;0.70;;
12848;SDS011;6493;50.928;7.172;2023-07-31T02:16:48;1.17;;;1.00;;
12848;SDS011;6493;50.928;7.172;2023-07-31T02:21:51;0.97;;;0.90;;
12848;SDS011;6493;50.928;7.172;2023-07-31T02:26:58;0.97;;;0.80;;
12848;SDS011;6493;50.928;7.172;2023-07-31T02:32:02;1.03;;;0.87;;
12848;SDS011;6493;50.928;7.172;2023-07-31T02:37:06;1.30;;;0.90;;
12848;SDS011;6493;50.928;7.172;2023-07-31T02:42:12;0.90;;;0.60;;
12848;SDS011;6493;50.928;7.172;2023-07-31T02:47:16;1.33;;;0.70;;
12848;SDS011;6493;50.928;7.172;2023-07-31T02:52:19;1.53;;;0.90;;
12848;SDS011;6493;50.928;7.172;2023-07-31T02:57:24;0.50;;;0.50;;
12848;SDS011;6493;50.928;7.172;2023-07-31T03:02:28;0.70;;;0.67;;
12848;SDS011;6493;50.928;7.172;2023-07-31T03:07:32;0.70;;;0.60;;
12848;SDS011;6493;50.928;7.172;2023-07-31T03:12:37;1.53;;;0.80;;
12848;SDS011;6493;50.928;7.172;2023-07-31T03:17:40;0.97;;;0.70;;
12848;SDS011;6493;50.928;7.172;2023-07-31T03:22:44;1.33;;;1.00;;
12848;SDS011;6493;50.928;7.172;2023-07-31T03:27:49;1.20;;;0.97;;
12848;SDS011;6493;50.928;7.172;2023-07-31T03:32:52;1.73;;;0.80;;
12848;SDS011;6493;50.928;7.172;2023-07-31T03:37:56;1.10;;;0.87;;
12848;SDS011;6493;50.928;7.172;2023-07-31T03:43:01;2.37;;;1.07;;
12848;SDS011;6493;50.928;7.172;2023-07-31T03:48:05;0.80;;;0.80;;
12848;SDS011;6493;50.928;7.172;2023-07-31T03:53:09;0.70;;;0.70;;
12848;SDS011;6493;50.928;7.172;2023-07-31T03:58:15;0.80;;;0.80;;
12848;SDS011;6493;50.928;7.172;2023-07-31T04:03:18;2.47;;;1.50;;
12848;SDS011;6493;50.928;7.172;2023-07-31T04:08:22;1.00;;;0.80;;
12848;SDS011;6493;50.928;7.172;2023-07-31T04:13:28;1.97;;;0.93;;
12848;SDS011;6493;50.928;7.172;2023-07-31T04:18:32;1.00;;;1.00;;
12848;SDS011;6493;50.928;7.172;2023-07-31T04:23:36;1.00;;;0.90;;
12848;SDS011;6493;50.928;7.172;2023-07-31T04:28:41;1.00;;;0.73;;
12848;SDS011;6493;50.928;7.172;2023-07-31T04:33:44;1.10;;;0.80;;
12848;SDS011;6493;50.928;7.172;2023-07-31T04:38:48;0.97;;;0.70;;
12848;SDS011;6493;50.928;7.172;2023-07-31T04:43:53;0.80;;;0.70;;
12848;SDS011;6493;50.928;7.172;2023-07-31T04:48:57;0.73;;;0.73;;
12848;SDS011;6493;50.928;7.172;2023-07-31T04:54:00;1.00;;;0.80;;
12848;SDS011;6493;50.928;7.172;2023-07-31T04:59:05;0.70;;;0.70;;
12848;SDS011;6493;50.928;7.172;2023-07-31T05:04:09;1.37;;;0.70;;
12848;SDS011;6493;50.928;7.172;2023-07-31T05:09:13;1.47;;;0.87;;
12848;SDS011;6493;50.928;7.172;2023-07-31T05:14:17;0.90;;;0.90;;
12848;SDS011;6493;50.928;7.172;2023-07-31T05:19:22;1.03;;;0.93;;
12848;SDS011;6493;50.928;7.172;2023-07-31T05:24:25;1.03;;;0.93;;
12848;SDS011;6493;50.928;7.172;2023-07-31T05:29:30;0.90;;;0.90;;
12848;SDS011;6493;50.928;7.172;2023-07-31T05:34:34;1.10;;;0.83;;
12848;SDS011;6493;50.928;7.172;2023-07-31T05:39:38;1.10;;;1.00;;
12848;SDS011;6493;50.928;7.172;2023-07-31T05:44:43;1.17;;;1.07;;
12848;SDS011;6493;50.928;7.172;2023-07-31T05:49:46;1.10;;;0.97;;
12848;SDS011;6493;50.928;7.172;2023-07-31T05:54:51;1.20;;;1.00;;
12848;SDS011;6493;50.928;7.172;2023-07-31T05:59:56;0.80;;;0.80;;
12848;SDS011;6493;50.928;7.172;2023-07-31T06:04:59;1.10;;;0.90;;
12848;SDS011;6493;50.928;7.172;2023-07-31T06:10:03;1.97;;;1.00;;
12848;SDS011;6493;50.928;7.172;2023-07-31T06:15:09;0.90;;;0.80;;
12848;SDS011;6493;50.928;7.172;2023-07-31T06:20:13;1.40;;;0.90;;
12848;SDS011;6493;50.928;7.172;2023-07-31T06:25:17;1.10;;;0.80;;
12848;SDS011;6493;50.928;7.172;2023-07-31T06:30:22;0.83;;;0.83;;
12848;SDS011;6493;50.928;7.172;2023-07-31T06:35:26;0.90;;;0.90;;
12848;SDS011;6493;50.928;7.172;2023-07-31T06:40:29;0.90;;;0.90;;
12848;SDS011;6493;50.928;7.172;2023-07-31T06:45:35;1.00;;;0.90;;
12848;SDS011;6493;50.928;7.172;2023-07-31T06:50:39;0.90;;;0.90;;
12848;SDS011;6493;50.928;7.172;2023-07-31T06:55:42;1.23;;;0.90;;
12848;SDS011;6493;50.928;7.172;2023-07-31T07:00:47;1.17;;;1.07;;
12848;SDS011;6493;50.928;7.172;2023-07-31T07:05:51;2.43;;;1.07;;
12848;SDS011;6493;50.928;7.172;2023-07-31T07:10:55;1.27;;;1.00;;
12848;SDS011;6493;50.928;7.172;2023-07-31T07:16:00;1.27;;;1.17;;
12848;SDS011;6493;50.928;7.172;2023-07-31T07:21:03;1.30;;;1.10;;
12848;SDS011;6493;50.928;7.172;2023-07-31T07:26:07;1.57;;;1.30;;
12848;SDS011;6493;50.928;7.172;2023-07-31T07:31:12;1.40;;;1.17;;
12848;SDS011;6493;50.928;7.172;2023-07-31T07:36:16;1.20;;;1.00;;
12848;SDS011;6493;50.928;7.172;2023-07-31T07:41:19;1.37;;;1.00;;
12848;SDS011;6493;50.928;7.172;2023-07-31T07:46:24;1.10;;;0.90;;
12848;SDS011;6493;50.928;7.172;2023-07-31T07:51:28;0.90;;;0.87;;
12848;SDS011;6493;50.928;7.172;2023-07-31T07:56:33;1.73;;;1.27;;
12848;SDS011;6493;50.928;7.172;2023-07-31T08:01:40;1.10;;;1.00;;
12848;SDS011;6493;50.928;7.172;2023-07-31T08:06:43;1.00;;;0.90;;
12848;SDS011;6493;50.928;7.172;2023-07-31T08:11:47;1.30;;;1.20;;
12848;SDS011;6493;50.928;7.172;2023-07-31T08:16:52;1.10;;;1.00;;
12848;SDS011;6493;50.928;7.172;2023-07-31T08:21:56;1.27;;;1.10;;
12848;SDS011;6493;50.928;7.172;2023-07-31T08:27:00;1.40;;;1.00;;
12848;SDS011;6493;50.928;7.172;2023-07-31T08:32:05;1.13;;;1.03;;
12848;SDS011;6493;50.928;7.172;2023-07-31T08:37:09;1.27;;;1.03;;
12848;SDS011;6493;50.928;7.172;2023-07-31T08:42:13;1.17;;;0.90;;
12848;SDS011;6493;50.928;7.172;2023-07-31T08:47:18;1.83;;;0.90;;
12848;SDS011;6493;50.928;7.172;2023-07-31T08:52:22;1.03;;;0.97;;
12848;SDS011;6493;50.928;7.172;2023-07-31T08:57:26;1.53;;;1.10;;
12848;SDS011;6493;50.928;7.172;2023-07-31T09:02:44;2.40;;;1.30;;
12848;SDS011;6493;50.928;7.172;2023-07-31T09:07:49;0.83;;;0.83;;
12848;SDS011;6493;50.928;7.172;2023-07-31T09:12:54;1.03;;;0.80;;
12848;SDS011;6493;50.928;7.172;2023-07-31T09:18:00;1.00;;;0.83;;
12848;SDS011;6493;50.928;7.172;2023-07-31T09:23:06;1.20;;;0.77;;
12848;SDS011;6493;50.928;7.172;2023-07-31T09:28:11;0.80;;;0.80;;
12848;SDS011;6493;50.928;7.172;2023-07-31T09:33:17;0.80;;;0.80;;
12848;SDS011;6493;50.928;7.172;2023-07-31T09:38:21;0.83;;;0.83;;
12848;SDS011;6493;50.928;7.172;2023-07-31T09:43:25;1.93;;;1.50;;
12848;SDS011;6493;50.928;7.172;2023-07-31T09:48:30;1.00;;;0.97;;
12848;SDS011;6493;50.928;7.172;2023-07-31T09:53:34;1.13;;;0.90;;
12848;SDS011;6493;50.928;7.172;2023-07-31T09:58:37;0.73;;;0.73;;
12848;SDS011;6493;50.928;7.172;2023-07-31T10:03:43;0.93;;;0.90;;
12848;SDS011;6493;50.928;7.172;2023-07-31T10:08:48;1.77;;;1.00;;
12848;SDS011;6493;50.928;7.172;2023-07-31T10:13:54;1.20;;;0.90;;
12848;SDS011;6493;50.928;7.172;2023-07-31T10:18:59;1.20;;;1.00;;
12848;SDS011;6493;50.928;7.172;2023-07-31T10:24:04;0.80;;;0.70;;
12848;SDS011;6493;50.928;7.172;2023-07-31T10:29:08;1.10;;;1.00;;
12848;SDS011;6493;50.928;7.172;2023-07-31T10:34:14;0.70;;;0.70;;
12848;SDS011;6493;50.928;7.172;2023-07-31T10:39:33;1.20;;;0.90;;
12848;SDS011;6493;50.928;7.172;2023-07-31T10:44:38;1.27;;;0.93;;
12848;SDS011;6493;50.928;7.172;2023-07-31T10:49:48;1.50;;;1.13;;
12848;SDS011;6493;50.928;7.172;2023-07-31T10:54:57;0.80;;;0.80;;
12848;SDS011;6493;50.928;7.172;2023-07-31T11:00:17;0.60;;;0.60;;
12848;SDS011;6493;50.928;7.172;2023-07-31T11:05:24;0.80;;;0.70;;
12848;SDS011;6493;50.928;7.172;2023-07-31T11:10:48;0.70;;;0.70;;
12848;SDS011;6493;50.928;7.172;2023-07-31T11:15:54;0.60;;;0.50;;
12848;SDS011;6493;50.928;7.172;2023-07-31T11:20:59;0.90;;;0.80;;
12848;SDS011;6493;50.928;7.172;2023-07-31T11:26:04;1.30;;;0.80;;
12848;SDS011;6493;50.928;7.172;2023-07-31T11:31:09;2.10;;;0.87;;
12848;SDS011;6493;50.928;7.172;2023-07-31T11:36:15;2.60;;;0.70;;
12848;SDS011;6493;50.928;7.172;2023-07-31T11:41:19;0.50;;;0.50;;
12848;SDS011;6493;50.928;7.172;2023-07-31T11:46:23;0.50;;;0.50;;
12848;SDS011;6493;50.928;7.172;2023-07-31T11:51:29;1.17;;;0.67;;
12848;SDS011;6493;50.928;7.172;2023-07-31T11:56:33;0.53;;;0.53;;
12848;SDS011;6493;50.928;7.172;2023-07-31T12:01:37;0.80;;;0.60;;
12848;SDS011;6493;50.928;7.172;2023-07-31T12:06:42;0.60;;;0.60;;
12848;SDS011;6493;50.928;7.172;2023-07-31T12:11:47;0.53;;;0.50;;
12848;SDS011;6493;50.928;7.172;2023-07-31T12:16:54;0.50;;;0.50;;
12848;SDS011;6493;50.928;7.172;2023-07-31T12:22:00;0.47;;;0.47;;
12848;SDS011;6493;50.928;7.172;2023-07-31T12:27:07;0.50;;;0.50;;
12848;SDS011;6493;50.928;7.172;2023-07-31T12:32:21;0.30;;;0.30;;
12848;SDS011;6493;50.928;7.172;2023-07-31T12:37:28;0.40;;;0.40;;
12848;SDS011;6493;50.928;7.172;2023-07-31T12:42:34;0.27;;;0.27;;
12848;SDS011;6493;50.928;7.172;2023-07-31T12:47:37;0.80;;;0.40;;
12848;SDS011;6493;50.928;7.172;2023-07-31T12:52:44;0.30;;;0.30;;
12848;SDS011;6493;50.928;7.172;2023-07-31T12:57:47;0.40;;;0.40;;
12848;SDS011;6493;50.928;7.172;2023-07-31T13:02:51;0.50;;;0.50;;
12848;SDS011;6493;50.928;7.172;2023-07-31T13:07:56;0.40;;;0.40;;
12848;SDS011;6493;50.928;7.172;2023-07-31T13:13:00;0.77;;;0.70;;
12848;SDS011;6493;50.928;7.172;2023-07-31T13:18:03;0.73;;;0.73;;
12848;SDS011;6493;50.928;7.172;2023-07-31T13:23:09;0.60;;;0.60;;
12848;SDS011;6493;50.928;7.172;2023-07-31T13:28:12;1.63;;;0.70;;
12848;SDS011;6493;50.928;7.172;2023-07-31T13:33:16;0.60;;;0.60;;
12848;SDS011;6493;50.928;7.172;2023-07-31T13:38:38;0.67;;;0.67;;
12848;SDS011;6493;50.928;7.172;2023-07-31T13:43:41;1.23;;;0.97;;
12848;SDS011;6493;50.928;7.172;2023-07-31T13:48:45;0.77;;;0.77;;
12848;SDS011;6493;50.928;7.172;2023-07-31T13:53:50;0.90;;;0.90;;
12848;SDS011;6493;50.928;7.172;2023-07-31T13:58:54;1.10;;;1.00;;
12848;SDS011;6493;50.928;7.172;2023-07-31T14:03:57;1.17;;;1.07;;
12848;SDS011;6493;50.928;7.172;2023-07-31T14:09:03;1.97;;;1.37;;
12848;SDS011;6493;50.928;7.172;2023-07-31T14:14:06;1.50;;;1.40;;
12848;SDS011;6493;50.928;7.172;2023-07-31T14:19:11;1.47;;;1.30;;
12848;SDS011;6493;50.928;7.172;2023-07-31T14:24:16;1.13;;;1.03;;
12848;SDS011;6493;50.928;7.172;2023-07-31T14:29:20;0.90;;;0.90;;
12848;SDS011;6493;50.928;7.172;2023-07-31T14:34:24;0.90;;;0.90;;
12848;SDS011;6493;50.928;7.172;2023-07-31T14:39:29;1.63;;;1.20;;
12848;SDS011;6493;50.928;7.172;2023-07-31T14:44:32;1.30;;;0.97;;
12848;SDS011;6493;50.928;7.172;2023-07-31T14:49:36;0.80;;;0.80;;
12848;SDS011;6493;50.928;7.172;2023-07-31T14:54:41;1.17;;;1.07;;
12848;SDS011;6493;50.928;7.172;2023-07-31T14:59:44;1.60;;;1.00;;
12848;SDS011;6493;50.928;7.172;2023-07-31T15:04:48;2.10;;;1.23;;
12848;SDS011;6493;50.928;7.172;2023-07-31T15:09:53;1.17;;;1.07;;
12848;SDS011;6493;50.928;7.172;2023-07-31T15:14:57;1.30;;;1.20;;
12848;SDS011;6493;50.928;7.172;2023-07-31T15:20:00;0.70;;;0.70;;
12848;SDS011;6493;50.928;7.172;2023-07-31T15:25:07;0.63;;;0.63;;
12848;SDS011;6493;50.928;7.172;2023-07-31T15:30:11;1.07;;;1.00;;
12848;SDS011;6493;50.928;7.172;2023-07-31T15:35:15;1.20;;;0.90;;
12848;SDS011;6493;50.928;7.172;2023-07-31T15:40:24;1.10;;;1.00;;
12848;SDS011;6493;50.928;7.172;2023-07-31T15:45:28;1.40;;;1.07;;
12848;SDS011;6493;50.928;7.172;2023-07-31T15:50:32;1.73;;;1.00;;
12848;SDS011;6493;50.928;7.172;2023-07-31T15:55:37;1.10;;;0.80;;
12848;SDS011;6493;50.928;7.172;2023-07-31T16:00:40;1.10;;;1.00;;
12848;SDS011;6493;50.928;7.172;2023-07-31T16:05:44;1.33;;;1.23;;
12848;SDS011;6493;50.928;7.172;2023-07-31T16:10:49;1.10;;;0.90;;
12848;SDS011;6493;50.928;7.172;2023-07-31T16:15:53;1.40;;;1.30;;
12848;SDS011;6493;50.928;7.172;2023-07-31T16:20:56;1.33;;;1.23;;
12848;SDS011;6493;50.928;7.172;2023-07-31T16:26:02;2.27;;;1.17;;
12848;SDS011;6493;50.928;7.172;2023-07-31T16:31:05;1.10;;;1.00;;
12848;SDS011;6493;50.928;7.172;2023-07-31T16:36:09;1.20;;;1.10;;
12848;SDS011;6493;50.928;7.172;2023-07-31T16:41:14;1.30;;;1.20;;
12848;SDS011;6493;50.928;7.172;2023-07-31T16:46:17;1.23;;;1.13;;
12848;SDS011;6493;50.928;7.172;2023-07-31T16:51:21;1.63;;;1.40;;
12848;SDS011;6493;50.928;7.172;2023-07-31T16:56:26;1.27;;;1.10;;
12848;SDS011;6493;50.928;7.172;2023-07-31T17:01:30;1.23;;;1.10;;
12848;SDS011;6493;50.928;7.172;2023-07-31T17:06:34;0.80;;;0.80;;
12848;SDS011;6493;50.928;7.172;2023-07-31T17:11:40;0.93;;;0.93;;
12848;SDS011;6493;50.928;7.172;2023-07-31T17:16:44;1.20;;;1.10;;
12848;SDS011;6493;50.928;7.172;2023-07-31T17:21:47;1.30;;;1.20;;
12848;SDS011;6493;50.928;7.172;2023-07-31T17:26:52;1.63;;;1.27;;
12848;SDS011;6493;50.928;7.172;2023-07-31T17:31:56;1.27;;;1.13;;
12848;SDS011;6493;50.928;7.172;2023-07-31T17:37:00;1.83;;;1.43;;
12848;SDS011;6493;50.928;7.172;2023-07-31T17:42:05;1.50;;;1.30;;
12848;SDS011;6493;50.928;7.172;2023-07-31T17:47:09;1.27;;;1.17;;
12848;SDS011;6493;50.928;7.172;2023-07-31T17:52:12;1.40;;;1.30;;
12848;SDS011;6493;50.928;7.172;2023-07-31T17:57:17;2.97;;;1.60;;
12848;SDS011;6493;50.928;7.172;2023-07-31T18:02:21;1.53;;;1.43;;
12848;SDS011;6493;50.928;7.172;2023-07-31T18:07:25;1.40;;;1.30;;
12848;SDS011;6493;50.928;7.172;2023-07-31T18:12:30;1.37;;;1.27;;
12848;SDS011;6493;50.928;7.172;2023-07-31T18:17:33;1.40;;;1.00;;
12848;SDS011;6493;50.928;7.172;2023-07-31T18:22:37;1.13;;;0.90;;
12848;SDS011;6493;50.928;7.172;2023-07-31T18:27:42;1.80;;;1.03;;
12848;SDS011;6493;50.928;7.172;2023-07-31T18:32:46;1.83;;;0.90;;
12848;SDS011;6493;50.928;7.172;2023-07-31T18:37:50;0.97;;;0.90;;
12848;SDS011;6493;50.928;7.172;2023-07-31T18:42:55;1.33;;;0.93;;
12848;SDS011;6493;50.928;7.172;2023-07-31T18:47:59;1.03;;;0.93;;
12848;SDS011;6493;50.928;7.172;2023-07-31T18:53:03;1.10;;;0.93;;
12848;SDS011;6493;50.928;7.172;2023-07-31T18:58:08;0.90;;;0.80;;
12848;SDS011;6493;50.928;7.172;2023-07-31T19:03:11;0.90;;;0.80;;
12848;SDS011;6493;50.928;7.172;2023-07-31T19:08:15;0.70;;;0.67;;
12848;SDS011;6493;50.928;7.172;2023-07-31T19:13:21;1.00;;;0.90;;
12848;SDS011;6493;50.928;7.172;2023-07-31T19:18:25;1.60;;;1.10;;
12848;SDS011;6493;50.928;7.172;2023-07-31T19:23:28;1.00;;;0.90;;
12848;SDS011;6493;50.928;7.172;2023-07-31T19:28:33;1.43;;;0.90;;
12848;SDS011;6493;50.928;7.172;2023-07-31T19:33:37;1.57;;;0.83;;
12848;SDS011;6493;50.928;7.172;2023-07-31T19:38:40;0.80;;;0.70;;
12848;SDS011;6493;50.928;7.172;2023-07-31T19:43:45;0.77;;;0.63;;
12848;SDS011;6493;50.928;7.172;2023-07-31T19:48:49;0.53;;;0.53;;
12848;SDS011;6493;50.928;7.172;2023-07-31T19:53:54;0.60;;;0.60;;
12848;SDS011;6493;50.928;7.172;2023-07-31T19:58:59;0.77;;;0.77;;
12848;SDS011;6493;50.928;7.172;2023-07-31T20:04:03;1.23;;;0.77;;
12848;SDS011;6493;50.928;7.172;2023-07-31T20:09:07;1.10;;;0.60;;
12848;SDS011;6493;50.928;7.172;2023-07-31T20:14:14;0.67;;;0.50;;
12848;SDS011;6493;50.928;7.172;2023-07-31T20:19:17;0.60;;;0.60;;
12848;SDS011;6493;50.928;7.172;2023-07-31T20:24:22;0.50;;;0.50;;
12848;SDS011;6493;50.928;7.172;2023-07-31T20:29:27;0.60;;;0.60;;
12848;SDS011;6493;50.928;7.172;2023-07-31T20:34:30;0.70;;;0.70;;
12848;SDS011;6493;50.928;7.172;2023-07-31T20:39:34;0.50;;;0.50;;
12848;SDS011;6493;50.928;7.172;2023-07-31T20:44:39;0.80;;;0.70;;
12848;SDS011;6493;50.928;7.172;2023-07-31T20:49:43;0.60;;;0.60;;
12848;SDS011;6493;50.928;7.172;2023-07-31T20:54:46;0.50;;;0.50;;
12848;SDS011;6493;50.928;7.172;2023-07-31T20:59:51;0.77;;;0.60;;
12848;SDS011;6493;50.928;7.172;2023-07-31T21:04:55;0.70;;;0.67;;
12848;SDS011;6493;50.928;7.172;2023-07-31T21:09:59;0.50;;;0.50;;
12848;SDS011;6493;50.928;7.172;2023-07-31T21:15:04;0.70;;;0.63;;
12848;SDS011;6493;50.928;7.172;2023-07-31T21:20:09;0.63;;;0.50;;
12848;SDS011;6493;50.928;7.172;2023-07-31T21:25:13;0.80;;;0.50;;
12848;SDS011;6493;50.928;7.172;2023-07-31T21:30:18;0.87;;;0.70;;
12848;SDS011;6493;50.928;7.172;2023-07-31T21:35:21;0.97;;;0.60;;
12848;SDS011;6493;50.928;7.172;2023-07-31T21:40:25;0.60;;;0.60;;
12848;SDS011;6493;50.928;7.172;2023-07-31T21:45:30;0.60;;;0.60;;
12848;SDS011;6493;50.928;7.172;2023-07-31T21:50:34;0.93;;;0.60;;
12848;SDS011;6493;50.928;7.172;2023-07-31T21:55:38;0.57;;;0.57;;
12848;SDS011;6493;50.928;7.172;2023-07-31T22:00:42;1.10;;;0.70;;
12848;SDS011;6493;50.928;7.172;2023-07-31T22:05:46;1.17;;;0.60;;
12848;SDS011;6493;50.928;7.172;2023-07-31T22:10:50;0.83;;;0.60;;
12848;SDS011;6493;50.928;7.172;2023-07-31T22:15:55;0.63;;;0.60;;
12848;SDS011;6493;50.928;7.172;2023-07-31T22:20:58;0.53;;;0.50;;
12848;SDS011;6493;50.928;7.172;2023-07-31T22:26:02;0.80;;;0.80;;
12848;SDS011;6493;50.928;7.172;2023-07-31T22:31:07;0.50;;;0.50;;
12848;SDS011;6493;50.928;7.172;2023-07-31T22:36:11;0.70;;;0.70;;
12848;SDS011;6493;50.928;7.172;2023-07-31T22:41:14;0.70;;;0.70;;
12848;SDS011;6493;50.928;7.172;2023-07-31T22:46:19;0.50;;;0.50;;
12848;SDS011;6493;50.928;7.172;2023-07-31T22:51:23;0.53;;;0.53;;
12848;SDS011;6493;50.928;7.172;2023-07-31T22:56:26;0.50;;;0.50;;
12848;SDS011;6493;50.928;7.172;2023-07-31T23:01:31;0.60;;;0.60;;
12848;SDS011;6493;50.928;7.172;2023-07-31T23:06:35;1.87;;;0.60;;
12848;SDS011;6493;50.928;7.172;2023-07-31T23:11:39;0.53;;;0.50;;
12848;SDS011;6493;50.928;7.172;2023-07-31T23:16:44;0.50;;;0.50;;
12848;SDS011;6493;50.928;7.172;2023-07-31T23:21:48;0.60;;;0.60;;
12848;SDS011;6493;50.928;7.172;2023-07-31T23:26:52;0.63;;;0.63;;
12848;SDS011;6493;50.928;7.172;2023-07-31T23:31:57;0.67;;;0.63;;
12848;SDS011;6493;50.928;7.172;2023-07-31T23:37:00;0.73;;;0.53;;
12848;SDS011;6493;50.928;7.172;2023-07-31T23:42:04;0.70;;;0.70;;
12848;SDS011;6493;50.928;7.172;2023-07-31T23:47:09;0.60;;;0.60;;
12848;SDS011;6493;50.928;7.172;2023-07-31T23:52:13;0.40;;;0.40;;
12848;SDS011;6493;50.928;7.172;2023-07-31T23:57:16;0.50;;;0.40;;
